Time;durP1;ratioP1;P1;durP2;ratioP2;P2;SDS_P1;SDS_P2;PMS_P1;PMS_P2;Temp;Humidity;BMP_temperature;BMP_pressure;BME280_temperature;BME280_humidity;BME280_pressure;Samples;Min_cycle;Max_cycle;Signal;HPM_P1;HPM_P2
2024/04/13 00:01:50;;;;;;;29.50;27.60;;;;;;;;;;5522257;25;20551;-77
2024/04/13 00:04:23;;;;;;;28.10;25.90;;;;;;;;;;5491196;26;20716;-77
2024/04/13 00:06:49;;;;;;;28.17;26.10;;;;;;;;;;5490224;26;20464;-77
2024/04/13 00:09:18;;;;;;;27.57;25.50;;;;;;;;;;5491030;26;20987;-78
2024/04/13 00:11:44;;;;;;;27.17;25.43;;;;;;;;;;5489856;26;20529;-77
2024/04/13 00:14:12;;;;;;;29.87;27.70;;;;;;;;;;5491019;26;20567;-79
2024/04/13 00:16:38;;;;;;;31.10;28.70;;;;;;;;;;5492000;26;20464;-77
2024/04/13 00:19:07;;;;;;;26.90;25.20;;;;;;;;;;5490806;26;20468;-79
2024/04/13 00:21:36;;;;;;;29.37;27.20;;;;;;;;;;5490332;26;20595;-77
2024/04/13 00:24:04;;;;;;;28.67;26.83;;;;;;;;;;5491477;26;20507;-78
2024/04/13 00:26:32;;;;;;;28.90;26.63;;;;;;;;;;5492495;26;20932;-79
2024/04/13 00:29:01;;;;;;;28.63;26.20;;;;;;;;;;5490469;26;20425;-79
2024/04/13 00:31:27;;;;;;;26.77;24.97;;;;;;;;;;5491176;26;20500;-78
2024/04/13 00:33:55;;;;;;;28.70;26.83;;;;;;;;;;5491589;26;20465;-80
2024/04/13 00:36:21;;;;;;;27.30;25.50;;;;;;;;;;5491350;26;20503;-80
2024/04/13 00:38:53;;;;;;;29.30;27.00;;;;;;;;;;5490491;26;20444;-79
2024/04/13 00:41:19;;;;;;;29.60;27.43;;;;;;;;;;5492215;26;20508;-80
2024/04/13 00:43:48;;;;;;;29.20;27.07;;;;;;;;;;5491318;26;20754;-78
2024/04/13 00:46:16;;;;;;;29.50;27.40;;;;;;;;;;5491695;26;20432;-79
2024/04/13 00:48:48;;;;;;;29.10;26.80;;;;;;;;;;5490452;26;20526;-79
2024/04/13 00:51:17;;;;;;;28.97;26.97;;;;;;;;;;5490863;26;21008;-79
2024/04/13 00:53:47;;;;;;;28.07;26.00;;;;;;;;;;5490780;26;20555;-80
2024/04/13 00:56:15;;;;;;;28.67;26.63;;;;;;;;;;5490794;26;20460;-79
2024/04/13 00:58:45;;;;;;;27.60;25.80;;;;;;;;;;5489767;26;20456;-80
2024/04/13 01:01:13;;;;;;;27.47;25.57;;;;;;;;;;5490661;26;20513;-79
2024/04/13 01:03:43;;;;;;;28.73;26.73;;;;;;;;;;5491312;26;20465;-79
2024/04/13 01:06:10;;;;;;;29.80;27.10;;;;;;;;;;5490457;26;20496;-79
2024/04/13 01:08:40;;;;;;;26.50;24.87;;;;;;;;;;5490202;26;21037;-79
2024/04/13 01:11:06;;;;;;;27.70;25.73;;;;;;;;;;5490405;26;20433;-80
2024/04/13 01:13:38;;;;;;;28.70;26.73;;;;;;;;;;5490391;26;20492;-79
2024/04/13 01:16:05;;;;;;;28.93;26.83;;;;;;;;;;5491222;26;20456;-79
2024/04/13 01:18:34;;;;;;;28.67;26.80;;;;;;;;;;5489775;26;20583;-78
2024/04/13 01:21:00;;;;;;;29.33;27.33;;;;;;;;;;5490572;26;20432;-80
2024/04/13 01:23:28;;;;;;;29.27;27.13;;;;;;;;;;5491002;26;21343;-79
2024/04/13 01:25:57;;;;;;;27.97;25.77;;;;;;;;;;5489869;26;20512;-78
2024/04/13 01:28:27;;;;;;;30.43;27.57;;;;;;;;;;5510699;26;20475;-79
2024/04/13 01:30:53;;;;;;;29.33;27.00;;;;;;;;;;5526979;25;20431;-79
2024/04/13 01:33:21;;;;;;;29.13;27.17;;;;;;;;;;5527715;25;20466;-80
2024/04/13 01:35:48;;;;;;;31.10;28.53;;;;;;;;;;5527509;25;20726;-80
2024/04/13 01:38:17;;;;;;;29.53;27.10;;;;;;;;;;5526319;25;20447;-79
2024/04/13 01:40:43;;;;;;;30.37;28.20;;;;;;;;;;5526946;25;20447;-78
2024/04/13 01:43:14;;;;;;;29.77;27.63;;;;;;;;;;5526903;25;20530;-80
2024/04/13 01:45:40;;;;;;;31.73;28.93;;;;;;;;;;5527169;25;20518;-79
2024/04/13 01:48:10;;;;;;;29.33;27.30;;;;;;;;;;5526914;25;20452;-80
2024/04/13 01:50:36;;;;;;;29.27;27.27;;;;;;;;;;5527411;25;20874;-80
2024/04/13 01:53:05;;;;;;;29.70;27.37;;;;;;;;;;5526915;25;20588;-78
2024/04/13 01:58:40;;;;;;;28.33;26.17;;;;;;;;;;5524228;25;20472;-80
2024/04/13 02:01:06;;;;;;;29.07;26.87;;;;;;;;;;5525976;25;20455;-79
2024/04/13 02:03:35;;;;;;;29.63;27.17;;;;;;;;;;5525816;25;20458;-79
2024/04/13 02:06:01;;;;;;;29.00;27.03;;;;;;;;;;5525922;25;21042;-80
2024/04/13 02:08:30;;;;;;;30.70;28.60;;;;;;;;;;5525328;25;20447;-79
2024/04/13 02:10:56;;;;;;;29.13;27.23;;;;;;;;;;5517239;25;20869;-79
2024/04/13 02:13:25;;;;;;;31.13;28.83;;;;;;;;;;5489188;26;21012;-79
2024/04/13 02:15:54;;;;;;;31.63;29.43;;;;;;;;;;5488223;26;20991;-79
2024/04/13 02:18:23;;;;;;;29.23;26.90;;;;;;;;;;5488091;26;20968;-80
2024/04/13 02:20:49;;;;;;;30.77;28.27;;;;;;;;;;5488884;26;20460;-78
2024/04/13 02:23:17;;;;;;;32.80;30.40;;;;;;;;;;5489953;26;21016;-78
2024/04/13 02:25:44;;;;;;;31.47;28.97;;;;;;;;;;5489235;26;20429;-79
2024/04/13 02:28:13;;;;;;;30.03;28.03;;;;;;;;;;5488435;26;20437;-79
2024/04/13 02:30:40;;;;;;;31.60;29.47;;;;;;;;;;5487937;26;20496;-79
2024/04/13 02:33:11;;;;;;;33.50;30.60;;;;;;;;;;5488840;25;20445;-80
2024/04/13 02:35:37;;;;;;;31.03;28.97;;;;;;;;;;5488416;26;20920;-79
2024/04/13 02:38:08;;;;;;;30.27;27.80;;;;;;;;;;5488788;26;20959;-79
2024/04/13 02:40:34;;;;;;;31.80;29.40;;;;;;;;;;5488927;26;20521;-79
2024/04/13 02:43:03;;;;;;;30.00;28.00;;;;;;;;;;5487594;26;20556;-79
2024/04/13 02:45:29;;;;;;;31.03;28.53;;;;;;;;;;5488506;26;20432;-79
2024/04/13 02:47:58;;;;;;;28.97;26.80;;;;;;;;;;5488602;26;20452;-80
2024/04/13 02:50:26;;;;;;;29.40;27.50;;;;;;;;;;5488125;26;20600;-78
2024/04/13 02:52:57;;;;;;;30.10;27.90;;;;;;;;;;5488485;26;20464;-79
2024/04/13 02:55:23;;;;;;;30.77;28.43;;;;;;;;;;5488088;26;20460;-79
2024/04/13 02:57:52;;;;;;;30.47;28.10;;;;;;;;;;5488324;26;21047;-79
2024/04/13 03:00:18;;;;;;;30.10;27.63;;;;;;;;;;5487967;26;20965;-78
2024/04/13 03:02:47;;;;;;;30.53;28.47;;;;;;;;;;5488235;26;20793;-79
2024/04/13 03:05:13;;;;;;;30.23;28.07;;;;;;;;;;5488926;26;20515;-79
2024/04/13 03:07:44;;;;;;;30.90;28.50;;;;;;;;;;5488760;26;20461;-79
2024/04/13 03:10:10;;;;;;;31.40;29.17;;;;;;;;;;5488677;26;20464;-79
2024/04/13 03:12:39;;;;;;;29.77;27.67;;;;;;;;;;5488355;26;20586;-79
2024/04/13 03:15:05;;;;;;;31.87;29.40;;;;;;;;;;5489046;26;20481;-79
2024/04/13 03:17:34;;;;;;;31.67;29.17;;;;;;;;;;5488488;26;20508;-79
2024/04/13 03:20:00;;;;;;;32.20;29.90;;;;;;;;;;5487687;26;20509;-79
2024/04/13 03:22:33;;;;;;;33.17;30.57;;;;;;;;;;5488830;26;20452;-80
2024/04/13 03:25:03;;;;;;;30.57;28.47;;;;;;;;;;5491472;25;20500;-79
2024/04/13 03:27:33;;;;;;;33.40;30.90;;;;;;;;;;5492368;26;20468;-79
2024/04/13 03:30:00;;;;;;;31.17;28.87;;;;;;;;;;5524750;25;20463;-79
2024/04/13 03:32:28;;;;;;;31.70;29.40;;;;;;;;;;5525285;25;20610;-80
2024/04/13 03:34:55;;;;;;;30.77;28.57;;;;;;;;;;5525612;25;20514;-78
2024/04/13 03:37:23;;;;;;;32.40;29.47;;;;;;;;;;5525264;25;20515;-80
2024/04/13 03:39:52;;;;;;;30.50;28.27;;;;;;;;;;5525087;25;20496;-79
2024/04/13 03:42:21;;;;;;;30.80;28.43;;;;;;;;;;5526025;25;20487;-77
2024/04/13 03:44:50;;;;;;;27.10;25.40;;;;;;;;;;5529991;25;20481;-80
2024/04/13 03:47:17;;;;;;;29.73;27.70;;;;;;;;;;5528668;25;20454;-79
2024/04/13 03:49:45;;;;;;;30.80;27.83;;;;;;;;;;5528386;25;20451;-79
2024/04/13 03:52:11;;;;;;;34.20;31.10;;;;;;;;;;5528644;25;20499;-81
2024/04/13 03:54:41;;;;;;;31.80;29.13;;;;;;;;;;5528932;25;20499;-78
2024/04/13 03:57:07;;;;;;;31.37;29.37;;;;;;;;;;5529065;25;20479;-79
2024/04/13 03:59:38;;;;;;;33.00;30.03;;;;;;;;;;5528165;25;20572;-79
2024/04/13 04:02:06;;;;;;;33.40;30.90;;;;;;;;;;5528239;25;20857;-79
2024/04/13 04:04:34;;;;;;;31.77;29.03;;;;;;;;;;5528171;25;20787;-80
2024/04/13 04:07:00;;;;;;;31.73;29.07;;;;;;;;;;5527364;25;20458;-79
2024/04/13 04:09:29;;;;;;;31.13;28.57;;;;;;;;;;5528009;25;20804;-80
2024/04/13 04:11:55;;;;;;;30.60;28.50;;;;;;;;;;5528671;25;20856;-79
2024/04/13 04:14:24;;;;;;;33.00;29.97;;;;;;;;;;5528538;25;20864;-79
2024/04/13 04:16:53;;;;;;;32.07;29.67;;;;;;;;;;5528547;25;20426;-79
2024/04/13 04:19:22;;;;;;;32.80;29.93;;;;;;;;;;5527496;25;20478;-79
2024/04/13 04:21:48;;;;;;;30.53;28.13;;;;;;;;;;5528178;25;20475;-80
2024/04/13 04:24:17;;;;;;;32.37;29.40;;;;;;;;;;5528970;25;20463;-78
2024/04/13 04:26:43;;;;;;;33.23;30.47;;;;;;;;;;5528275;25;20416;-78
2024/04/13 04:29:12;;;;;;;30.77;28.40;;;;;;;;;;5525109;25;20431;-76
2024/04/13 04:31:38;;;;;;;32.20;29.07;;;;;;;;;;5525361;25;20535;-77
2024/04/13 04:34:09;;;;;;;31.13;28.73;;;;;;;;;;5525634;25;20478;-77
2024/04/13 04:36:36;;;;;;;31.43;29.37;;;;;;;;;;5525123;25;20966;-77
2024/04/13 04:39:04;;;;;;;31.80;29.23;;;;;;;;;;5524615;25;20438;-77
2024/04/13 04:41:31;;;;;;;30.13;27.40;;;;;;;;;;5523863;25;20486;-79
2024/04/13 04:43:59;;;;;;;31.43;28.90;;;;;;;;;;5524772;25;20509;-78
2024/04/13 04:46:26;;;;;;;33.60;30.50;;;;;;;;;;5524912;25;20459;-77
2024/04/13 04:48:54;;;;;;;31.43;29.13;;;;;;;;;;5524452;25;20467;-77
2024/04/13 04:51:23;;;;;;;30.30;27.90;;;;;;;;;;5524443;25;20605;-77
2024/04/13 04:53:53;;;;;;;31.23;28.10;;;;;;;;;;5523682;25;20454;-77
2024/04/13 04:56:20;;;;;;;32.53;29.80;;;;;;;;;;5524380;25;20896;-77
2024/04/13 04:58:51;;;;;;;30.63;28.17;;;;;;;;;;5524065;25;21005;-77
2024/04/13 05:01:17;;;;;;;28.87;26.60;;;;;;;;;;5524484;25;21066;-78
2024/04/13 05:03:45;;;;;;;31.70;29.40;;;;;;;;;;5524517;25;20521;-77
2024/04/13 05:06:11;;;;;;;30.33;27.83;;;;;;;;;;5524658;25;20549;-77
2024/04/13 05:08:45;;;;;;;29.33;27.03;;;;;;;;;;5523988;25;20467;-77
2024/04/13 05:11:14;;;;;;;29.97;27.77;;;;;;;;;;5524055;25;21014;-77
2024/04/13 05:13:40;;;;;;;31.07;28.67;;;;;;;;;;5523575;25;20491;-77
2024/04/13 05:16:09;;;;;;;29.73;27.60;;;;;;;;;;5524557;25;20468;-77
2024/04/13 05:18:35;;;;;;;31.37;29.40;;;;;;;;;;5524099;25;20459;-77
2024/04/13 05:21:04;;;;;;;30.57;27.87;;;;;;;;;;5524962;25;20459;-77
2024/04/13 05:23:30;;;;;;;30.77;28.40;;;;;;;;;;5524482;25;20431;-78
2024/04/13 05:26:01;;;;;;;28.57;26.30;;;;;;;;;;5525151;25;20495;-78
2024/04/13 05:28:27;;;;;;;29.77;27.73;;;;;;;;;;5524045;25;20516;-76
2024/04/13 05:31:01;;;;;;;29.10;26.70;;;;;;;;;;5523800;25;20499;-76
2024/04/13 05:33:27;;;;;;;27.37;25.27;;;;;;;;;;5523784;25;20971;-76
2024/04/13 05:35:58;;;;;;;28.60;26.30;;;;;;;;;;5524282;25;21107;-76
2024/04/13 05:38:24;;;;;;;25.23;23.47;;;;;;;;;;5522964;25;20455;-75
2024/04/13 05:40:54;;;;;;;24.10;22.30;;;;;;;;;;5523817;25;20498;-76
2024/04/13 05:43:23;;;;;;;27.43;24.90;;;;;;;;;;5523048;25;20970;-77
2024/04/13 05:45:52;;;;;;;27.07;24.50;;;;;;;;;;5525402;25;21066;-78
2024/04/13 05:48:19;;;;;;;26.37;23.77;;;;;;;;;;5524383;25;20792;-78
2024/04/13 05:50:54;;;;;;;26.87;24.60;;;;;;;;;;5524746;25;20507;-78
2024/04/13 05:53:20;;;;;;;25.30;23.30;;;;;;;;;;5525414;25;20434;-77
2024/04/13 05:55:49;;;;;;;23.80;22.10;;;;;;;;;;5525422;25;20466;-77
2024/04/13 05:58:15;;;;;;;25.00;22.97;;;;;;;;;;5524648;25;20515;-77
2024/04/13 06:00:46;;;;;;;24.60;22.80;;;;;;;;;;5524230;25;20486;-77
2024/04/13 06:03:12;;;;;;;25.00;22.87;;;;;;;;;;5524091;25;20849;-78
2024/04/13 06:05:41;;;;;;;25.57;23.57;;;;;;;;;;5524777;25;20455;-78
2024/04/13 06:08:09;;;;;;;24.70;23.00;;;;;;;;;;5495324;25;20793;-79
2024/04/13 06:10:37;;;;;;;25.80;23.93;;;;;;;;;;5487133;26;20777;-77
2024/04/13 06:13:04;;;;;;;23.77;22.07;;;;;;;;;;5514526;26;20551;-79
2024/04/13 06:15:32;;;;;;;24.67;22.90;;;;;;;;;;5487817;25;20448;-78
2024/04/13 06:18:01;;;;;;;21.33;20.03;;;;;;;;;;5487991;26;20513;-79
2024/04/13 06:20:29;;;;;;;24.70;22.80;;;;;;;;;;5487981;26;20589;-78
2024/04/13 06:22:55;;;;;;;21.77;20.23;;;;;;;;;;5488286;26;20914;-78
2024/04/13 06:25:24;;;;;;;25.10;23.03;;;;;;;;;;5487713;26;20980;-78
2024/04/13 06:27:50;;;;;;;22.40;20.60;;;;;;;;;;5487321;26;20514;-77
2024/04/13 06:30:19;;;;;;;23.10;21.07;;;;;;;;;;5486886;26;20560;-78
2024/04/13 06:32:45;;;;;;;23.13;20.90;;;;;;;;;;5487195;26;20479;-78
2024/04/13 06:35:16;;;;;;;22.93;21.00;;;;;;;;;;5487119;26;21077;-78
2024/04/13 06:37:43;;;;;;;23.27;21.57;;;;;;;;;;5487400;26;20460;-77
2024/04/13 06:40:13;;;;;;;24.43;22.63;;;;;;;;;;5486313;26;20963;-77
2024/04/13 06:42:39;;;;;;;24.13;22.10;;;;;;;;;;5486081;26;20456;-77
2024/04/13 06:45:08;;;;;;;23.70;21.90;;;;;;;;;;5486457;26;20489;-79
2024/04/13 06:47:34;;;;;;;23.00;21.50;;;;;;;;;;5486944;26;20521;-77
2024/04/13 06:50:02;;;;;;;23.77;21.97;;;;;;;;;;5485800;26;20460;-77
2024/04/13 06:52:31;;;;;;;23.50;22.00;;;;;;;;;;5485946;26;21502;-77
2024/04/13 06:55:00;;;;;;;23.90;22.20;;;;;;;;;;5486093;26;20518;-79
2024/04/13 06:57:26;;;;;;;24.70;22.93;;;;;;;;;;5485781;26;20456;-78
2024/04/13 06:59:54;;;;;;;23.33;21.87;;;;;;;;;;5486348;26;20460;-78
2024/04/13 07:02:21;;;;;;;22.30;20.80;;;;;;;;;;5485697;26;20468;-79
2024/04/13 07:04:50;;;;;;;24.37;22.47;;;;;;;;;;5486656;26;20509;-78
2024/04/13 07:07:16;;;;;;;23.60;21.60;;;;;;;;;;5485998;26;20480;-78
2024/04/13 07:09:47;;;;;;;24.00;22.20;;;;;;;;;;5485426;26;20517;-75
2024/04/13 07:12:14;;;;;;;22.73;21.10;;;;;;;;;;5485725;26;20476;-79
2024/04/13 07:14:42;;;;;;;23.77;21.57;;;;;;;;;;5486226;26;20777;-76
2024/04/13 07:17:08;;;;;;;24.70;22.87;;;;;;;;;;5485274;26;20471;-76
2024/04/13 07:19:37;;;;;;;22.90;21.00;;;;;;;;;;5488482;26;20444;-76
2024/04/13 07:22:03;;;;;;;23.33;21.43;;;;;;;;;;5488890;26;20530;-76
2024/04/13 07:24:32;;;;;;;23.20;21.47;;;;;;;;;;5489345;26;20585;-76
2024/04/13 07:27:01;;;;;;;20.97;19.70;;;;;;;;;;5488677;26;20529;-77
2024/04/13 07:29:30;;;;;;;25.40;23.60;;;;;;;;;;5488729;26;20440;-76
2024/04/13 07:31:56;;;;;;;26.20;24.40;;;;;;;;;;5489414;26;20505;-77
2024/04/13 07:34:24;;;;;;;24.27;22.37;;;;;;;;;;5489780;26;20493;-77
2024/04/13 07:36:50;;;;;;;25.80;23.53;;;;;;;;;;5490253;26;20460;-77
2024/04/13 07:39:19;;;;;;;23.07;21.47;;;;;;;;;;5488693;26;20572;-77
2024/04/13 07:41:45;;;;;;;24.47;22.47;;;;;;;;;;5488884;26;20525;-77
2024/04/13 07:44:16;;;;;;;22.80;21.10;;;;;;;;;;5488018;26;20513;-76
2024/04/13 07:46:42;;;;;;;23.73;21.77;;;;;;;;;;5489258;26;20440;-77
2024/04/13 07:49:11;;;;;;;24.53;22.73;;;;;;;;;;5489327;26;20448;-77
2024/04/13 07:51:37;;;;;;;25.13;23.07;;;;;;;;;;5489648;26;20464;-78
2024/04/13 07:54:06;;;;;;;23.97;22.23;;;;;;;;;;5489108;26;20452;-77
2024/04/13 07:56:32;;;;;;;22.87;21.40;;;;;;;;;;5488847;26;20570;-78
2024/04/13 07:59:01;;;;;;;23.63;22.13;;;;;;;;;;5488867;26;20456;-77
2024/04/13 08:01:29;;;;;;;21.67;20.27;;;;;;;;;;5489418;26;20517;-76
2024/04/13 08:03:58;;;;;;;22.00;20.40;;;;;;;;;;5500624;26;20779;-75
2024/04/13 08:06:25;;;;;;;22.80;21.00;;;;;;;;;;5526587;25;20427;-77
2024/04/13 08:08:54;;;;;;;24.47;22.47;;;;;;;;;;5525522;25;20466;-76
2024/04/13 08:11:20;;;;;;;23.07;21.33;;;;;;;;;;5526120;25;20522;-77
2024/04/13 08:13:49;;;;;;;22.23;20.70;;;;;;;;;;5526503;25;20443;-76
2024/04/13 08:16:15;;;;;;;22.77;21.00;;;;;;;;;;5525745;25;20501;-78
2024/04/13 08:18:46;;;;;;;24.40;22.23;;;;;;;;;;5525563;25;20451;-76
2024/04/13 08:21:12;;;;;;;21.17;19.87;;;;;;;;;;5524941;25;20466;-77
2024/04/13 08:23:41;;;;;;;22.97;21.47;;;;;;;;;;5526081;25;20527;-78
2024/04/13 08:26:07;;;;;;;22.67;21.17;;;;;;;;;;5524617;25;20451;-77
2024/04/13 08:28:35;;;;;;;22.47;20.97;;;;;;;;;;5522752;25;20463;-77
2024/04/13 08:31:05;;;;;;;24.20;22.70;;;;;;;;;;5524510;25;20542;-76
2024/04/13 08:33:34;;;;;;;22.07;20.33;;;;;;;;;;5525492;25;20476;-81
2024/04/13 08:36:06;;;;;;;24.13;22.50;;;;;;;;;;5521191;25;20517;-73
2024/04/13 08:38:35;;;;;;;22.47;20.63;;;;;;;;;;5512129;26;20493;-74
2024/04/13 08:41:03;;;;;;;24.17;22.40;;;;;;;;;;5495450;25;20848;-73
2024/04/13 08:43:32;;;;;;;22.97;21.47;;;;;;;;;;5484704;26;20649;-73
2024/04/13 08:46:03;;;;;;;21.97;20.53;;;;;;;;;;5484593;26;20766;-74
2024/04/13 08:48:32;;;;;;;22.63;20.90;;;;;;;;;;5486350;26;20444;-73
2024/04/13 08:50:59;;;;;;;23.27;21.50;;;;;;;;;;5486021;26;20460;-73
2024/04/13 08:53:31;;;;;;;24.33;22.40;;;;;;;;;;5484756;26;20585;-75
2024/04/13 08:55:58;;;;;;;24.33;22.73;;;;;;;;;;5487021;26;20437;-74
2024/04/13 08:58:27;;;;;;;24.60;22.70;;;;;;;;;;5505736;26;20447;-73
2024/04/13 09:00:53;;;;;;;22.37;21.07;;;;;;;;;;5523081;25;20913;-73
2024/04/13 09:03:23;;;;;;;21.30;19.90;;;;;;;;;;5522442;25;21018;-76
2024/04/13 09:05:50;;;;;;;25.00;23.20;;;;;;;;;;5522756;26;21167;-74
2024/04/13 09:08:19;;;;;;;24.03;22.50;;;;;;;;;;5522022;26;20455;-74
2024/04/13 09:10:51;;;;;;;24.80;23.00;;;;;;;;;;5522946;25;20451;-74
2024/04/13 09:13:19;;;;;;;24.43;22.60;;;;;;;;;;5523258;26;20475;-73
2024/04/13 09:15:46;;;;;;;23.63;22.07;;;;;;;;;;5522108;25;20471;-74
2024/04/13 09:18:15;;;;;;;23.67;22.27;;;;;;;;;;5522486;26;20510;-74
2024/04/13 09:20:41;;;;;;;23.27;21.77;;;;;;;;;;5523147;26;20519;-73
2024/04/13 09:23:10;;;;;;;23.87;22.27;;;;;;;;;;5522866;25;20870;-75
2024/04/13 09:25:36;;;;;;;24.07;22.10;;;;;;;;;;5523360;26;20455;-74
2024/04/13 09:28:07;;;;;;;21.97;20.67;;;;;;;;;;5522844;26;20467;-75
2024/04/13 09:30:34;;;;;;;25.57;23.60;;;;;;;;;;5523448;26;20783;-74
2024/04/13 09:33:03;;;;;;;25.77;23.93;;;;;;;;;;5522944;25;20471;-75
2024/04/13 09:35:29;;;;;;;24.87;23.10;;;;;;;;;;5523522;26;20507;-80
2024/04/13 09:37:59;;;;;;;23.73;21.93;;;;;;;;;;5524098;26;20522;-77
2024/04/13 09:40:25;;;;;;;24.10;22.70;;;;;;;;;;5522540;26;20467;-76
2024/04/13 09:42:54;;;;;;;25.67;23.77;;;;;;;;;;5523045;25;20491;-77
2024/04/13 09:45:22;;;;;;;25.23;23.63;;;;;;;;;;5516366;26;20727;-76
2024/04/13 09:47:53;;;;;;;25.20;23.60;;;;;;;;;;5519169;26;20531;-77
2024/04/13 09:50:19;;;;;;;25.00;22.67;;;;;;;;;;5507825;25;20464;-76
2024/04/13 09:52:48;;;;;;;24.07;22.57;;;;;;;;;;5522051;25;20530;-77
2024/04/13 09:55:14;;;;;;;24.53;22.50;;;;;;;;;;5523173;25;20512;-78
2024/04/13 09:57:43;;;;;;;25.20;23.30;;;;;;;;;;5523809;25;20499;-76
2024/04/13 10:00:10;;;;;;;23.57;21.83;;;;;;;;;;5517721;25;20449;-76
2024/04/13 10:02:41;;;;;;;25.50;23.23;;;;;;;;;;5486810;26;20850;-76
2024/04/13 10:05:07;;;;;;;25.73;24.00;;;;;;;;;;5514904;26;20479;-76
2024/04/13 10:07:38;;;;;;;26.00;24.40;;;;;;;;;;5524322;25;20495;-77
2024/04/13 10:10:07;;;;;;;24.80;22.93;;;;;;;;;;5510378;25;20457;-78
2024/04/13 10:12:40;;;;;;;24.73;22.80;;;;;;;;;;5486550;26;20480;-77
2024/04/13 10:15:07;;;;;;;23.83;22.40;;;;;;;;;;5487302;26;20524;-75
2024/04/13 10:17:36;;;;;;;23.23;21.73;;;;;;;;;;5497231;26;20498;-76
2024/04/13 10:20:06;;;;;;;24.57;22.77;;;;;;;;;;5522139;25;21029;-76
2024/04/13 10:22:36;;;;;;;25.53;23.87;;;;;;;;;;5523116;25;20470;-76
2024/04/13 10:25:06;;;;;;;25.87;23.97;;;;;;;;;;5522944;25;21086;-76
2024/04/13 10:27:35;;;;;;;25.30;23.50;;;;;;;;;;5523313;25;20483;-77
2024/04/13 10:30:03;;;;;;;23.47;21.77;;;;;;;;;;5522311;25;20463;-76
2024/04/13 10:32:31;;;;;;;25.80;23.77;;;;;;;;;;5522065;25;20463;-77
2024/04/13 10:35:09;;;;;;;25.43;23.50;;;;;;;;;;5522243;25;21182;-76
2024/04/13 10:37:39;;;;;;;25.80;24.10;;;;;;;;;;5523071;25;20475;-76
2024/04/13 10:40:05;;;;;;;24.50;22.90;;;;;;;;;;5521514;25;20458;-78
2024/04/13 10:42:41;;;;;;;25.80;23.80;;;;;;;;;;5522179;25;20478;-76
2024/04/13 10:45:10;;;;;;;23.73;22.23;;;;;;;;;;5523186;26;20522;-76
2024/04/13 10:47:40;;;;;;;23.70;22.20;;;;;;;;;;5517311;26;20524;-76
2024/04/13 10:50:09;;;;;;;23.40;21.70;;;;;;;;;;5498907;26;20615;-78
2024/04/13 10:52:38;;;;;;;25.07;23.27;;;;;;;;;;5524490;25;20581;-76
2024/04/13 10:55:05;;;;;;;24.47;22.53;;;;;;;;;;5521571;25;20527;-75
2024/04/13 10:57:33;;;;;;;25.33;23.63;;;;;;;;;;5516619;25;20467;-77
2024/04/13 10:59:59;;;;;;;25.67;23.73;;;;;;;;;;5525799;25;20490;-77
2024/04/13 11:02:28;;;;;;;24.97;23.13;;;;;;;;;;5525159;25;20612;-77
2024/04/13 11:04:54;;;;;;;25.27;23.67;;;;;;;;;;5526258;25;20535;-76
2024/04/13 11:07:25;;;;;;;23.27;21.57;;;;;;;;;;5526036;25;20435;-76
2024/04/13 11:09:51;;;;;;;23.27;21.80;;;;;;;;;;5525673;25;20463;-76
2024/04/13 11:12:21;;;;;;;25.27;23.70;;;;;;;;;;5525192;25;20588;-76
2024/04/13 11:14:47;;;;;;;22.57;20.97;;;;;;;;;;5505716;25;20476;-76
2024/04/13 11:17:15;;;;;;;24.70;22.87;;;;;;;;;;5489083;26;20519;-76
2024/04/13 11:19:42;;;;;;;23.90;22.40;;;;;;;;;;5505262;26;20509;-76
2024/04/13 11:22:12;;;;;;;27.03;24.63;;;;;;;;;;5525983;25;20548;-77
2024/04/13 11:24:40;;;;;;;25.27;23.37;;;;;;;;;;5522798;25;21264;-76
2024/04/13 11:27:09;;;;;;;24.30;22.80;;;;;;;;;;5488593;26;20833;-77
2024/04/13 11:29:35;;;;;;;23.07;21.77;;;;;;;;;;5489342;26;20485;-76
2024/04/13 11:32:04;;;;;;;24.50;22.93;;;;;;;;;;5489101;26;20472;-76
2024/04/13 11:34:31;;;;;;;24.53;23.03;;;;;;;;;;5490199;26;20500;-77
2024/04/13 11:37:03;;;;;;;25.30;23.70;;;;;;;;;;5489658;26;20453;-78
2024/04/13 11:39:33;;;;;;;25.07;23.27;;;;;;;;;;5488722;26;20468;-77
2024/04/13 11:42:07;;;;;;;24.50;22.80;;;;;;;;;;5489224;26;20963;-76
2024/04/13 11:44:33;;;;;;;22.80;21.50;;;;;;;;;;5489742;26;20590;-76
2024/04/13 11:47:02;;;;;;;24.80;23.10;;;;;;;;;;5489907;26;20528;-76
2024/04/13 11:49:29;;;;;;;23.60;21.87;;;;;;;;;;5488729;26;20456;-76
2024/04/13 11:51:57;;;;;;;24.17;22.47;;;;;;;;;;5489436;26;21540;-75
2024/04/13 11:54:24;;;;;;;22.17;20.63;;;;;;;;;;5489611;26;20464;-78
2024/04/13 11:56:53;;;;;;;23.00;21.30;;;;;;;;;;5523502;25;20998;-76
2024/04/13 11:59:23;;;;;;;22.80;21.30;;;;;;;;;;5526418;25;20454;-77
2024/04/13 12:01:52;;;;;;;21.47;20.27;;;;;;;;;;5525838;25;20834;-77
2024/04/13 12:04:18;;;;;;;21.80;20.40;;;;;;;;;;5524129;25;20475;-77
2024/04/13 12:06:47;;;;;;;22.10;20.70;;;;;;;;;;5523668;25;20459;-77
2024/04/13 12:09:13;;;;;;;22.47;21.20;;;;;;;;;;5506869;25;20501;-77
2024/04/13 12:11:42;;;;;;;22.43;21.13;;;;;;;;;;5489632;26;21093;-76
2024/04/13 12:14:08;;;;;;;22.93;21.60;;;;;;;;;;5489529;26;20456;-77
2024/04/13 12:16:39;;;;;;;22.67;21.27;;;;;;;;;;5490220;26;20456;-75
2024/04/13 12:19:06;;;;;;;23.77;22.30;;;;;;;;;;5517471;25;20520;-78
2024/04/13 12:21:34;;;;;;;23.87;22.37;;;;;;;;;;5520265;25;20461;-78
2024/04/13 12:24:01;;;;;;;24.20;22.53;;;;;;;;;;5488112;26;21031;-76
2024/04/13 12:26:29;;;;;;;23.97;22.10;;;;;;;;;;5489373;26;20488;-78
2024/04/13 12:28:55;;;;;;;23.70;22.10;;;;;;;;;;5520776;26;20565;-77
2024/04/13 12:31:24;;;;;;;23.27;21.87;;;;;;;;;;5525947;25;20471;-77
2024/04/13 12:33:53;;;;;;;24.17;22.50;;;;;;;;;;5525992;25;20459;-78
2024/04/13 12:36:22;;;;;;;24.60;23.00;;;;;;;;;;5525568;25;21179;-77
2024/04/13 12:38:48;;;;;;;24.07;22.20;;;;;;;;;;5525088;25;20471;-78
2024/04/13 12:41:17;;;;;;;24.33;22.73;;;;;;;;;;5508674;25;20538;-77
2024/04/13 12:43:45;;;;;;;25.73;23.83;;;;;;;;;;5488935;26;20489;-78
2024/04/13 12:46:16;;;;;;;26.20;24.80;;;;;;;;;;5489182;26;20460;-77
2024/04/13 12:48:42;;;;;;;29.03;27.40;;;;;;;;;;5488696;26;20464;-77
2024/04/13 12:51:15;;;;;;;25.47;24.00;;;;;;;;;;5488287;26;20465;-77
2024/04/13 12:53:42;;;;;;;24.73;23.40;;;;;;;;;;5489088;26;20456;-77
2024/04/13 12:56:11;;;;;;;25.77;24.47;;;;;;;;;;5488315;26;20828;-76
2024/04/13 12:58:37;;;;;;;24.10;22.90;;;;;;;;;;5487740;26;20448;-77
2024/04/13 13:01:06;;;;;;;25.63;24.43;;;;;;;;;;5488619;26;20983;-77
2024/04/13 13:03:32;;;;;;;25.50;24.10;;;;;;;;;;5488291;26;20453;-77
2024/04/13 13:06:01;;;;;;;25.63;24.13;;;;;;;;;;5503125;26;21108;-77
2024/04/13 13:08:31;;;;;;;25.50;24.30;;;;;;;;;;5513937;26;20527;-77
2024/04/13 13:11:00;;;;;;;25.87;24.33;;;;;;;;;;5525528;25;20520;-76
2024/04/13 13:13:26;;;;;;;26.60;25.07;;;;;;;;;;5524208;25;20483;-77
2024/04/13 13:15:55;;;;;;;25.30;23.97;;;;;;;;;;5522150;26;20562;-78
2024/04/13 13:18:22;;;;;;;25.50;24.20;;;;;;;;;;5491259;26;20472;-76
2024/04/13 13:20:50;;;;;;;25.63;24.23;;;;;;;;;;5501968;25;20920;-77
2024/04/13 13:23:17;;;;;;;24.70;23.60;;;;;;;;;;5524417;25;20986;-76
2024/04/13 13:25:48;;;;;;;26.27;24.60;;;;;;;;;;5514223;26;20528;-77
2024/04/13 13:28:14;;;;;;;25.30;23.90;;;;;;;;;;5515329;26;20451;-76
2024/04/13 13:30:43;;;;;;;25.53;24.27;;;;;;;;;;5525053;25;20447;-77
2024/04/13 13:33:09;;;;;;;25.50;24.20;;;;;;;;;;5524933;26;20462;-77
2024/04/13 13:35:38;;;;;;;26.23;24.70;;;;;;;;;;5525047;26;20913;-77
2024/04/13 13:38:05;;;;;;;26.43;24.93;;;;;;;;;;5524283;25;21033;-77
2024/04/13 13:40:34;;;;;;;26.43;25.13;;;;;;;;;;5524819;26;20585;-78
2024/04/13 13:43:03;;;;;;;26.17;24.97;;;;;;;;;;5524114;25;20509;-76
2024/04/13 13:45:32;;;;;;;25.17;23.97;;;;;;;;;;5525133;26;20497;-77
2024/04/13 13:47:58;;;;;;;25.60;24.40;;;;;;;;;;5525439;26;21042;-78
2024/04/13 13:50:26;;;;;;;26.03;24.73;;;;;;;;;;5525680;26;20435;-77
2024/04/13 13:52:52;;;;;;;25.47;23.97;;;;;;;;;;5525486;25;20467;-78
2024/04/13 13:55:21;;;;;;;23.63;22.43;;;;;;;;;;5524786;26;20572;-76
2024/04/13 13:57:47;;;;;;;25.60;24.10;;;;;;;;;;5524178;26;20502;-77
2024/04/13 14:00:20;;;;;;;25.80;24.17;;;;;;;;;;5523328;25;20455;-77
2024/04/13 14:02:46;;;;;;;25.10;23.80;;;;;;;;;;5523928;25;21006;-77
2024/04/13 14:05:15;;;;;;;26.13;24.47;;;;;;;;;;5521923;25;20543;-76
2024/04/13 14:07:41;;;;;;;26.23;24.70;;;;;;;;;;5523576;25;20494;-76
2024/04/13 14:10:10;;;;;;;23.50;22.40;;;;;;;;;;5521401;25;20492;-76
2024/04/13 14:12:36;;;;;;;24.20;23.00;;;;;;;;;;5520258;25;20507;-77
2024/04/13 14:15:04;;;;;;;26.10;24.80;;;;;;;;;;5518806;25;20539;-78
2024/04/13 14:17:33;;;;;;;24.83;23.73;;;;;;;;;;5507339;25;20448;-77
2024/04/13 14:20:03;;;;;;;26.00;24.40;;;;;;;;;;5516971;26;20528;-76
2024/04/13 14:22:31;;;;;;;25.03;23.40;;;;;;;;;;5519107;25;20471;-76
2024/04/13 14:25:01;;;;;;;27.73;25.63;;;;;;;;;;5486462;26;20838;-76